createdAt,value
2018-06-24T00:01:42.322Z,95310.64
2018-06-24T00:04:09.064Z,95304.35
2018-06-24T00:06:35.645Z,95310.03
2018-06-24T00:09:02.324Z,95304.63
2018-06-24T00:11:29.018Z,95303.34
2018-06-24T00:13:55.679Z,95304.35
2018-06-24T00:16:22.304Z,95304.88
2018-06-24T00:18:48.994Z,95305.39
2018-06-24T00:21:15.637Z,95312.20
2018-06-24T00:23:42.277Z,95307.78
2018-06-24T00:26:08.972Z,95308.80
2018-06-24T00:28:35.618Z,95313.86
2018-06-24T00:31:02.303Z,95317.17
2018-06-24T00:33:28.941Z,95315.88
2018-06-24T00:35:55.626Z,95316.01
2018-06-24T00:38:22.284Z,95315.41
2018-06-24T00:40:48.999Z,95312.38
2018-06-24T00:43:15.638Z,95313.28
2018-06-24T00:45:42.269Z,95309.62
2018-06-24T00:48:08.961Z,95312.14
2018-06-24T00:50:35.596Z,95312.39
2018-06-24T00:53:02.280Z,95307.22
2018-06-24T00:55:28.972Z,95307.20
2018-06-24T00:57:55.609Z,95304.34
2018-06-24T01:00:22.259Z,95307.75
2018-06-24T01:02:48.886Z,95307.63
2018-06-24T01:05:15.526Z,95305.52
2018-06-24T01:07:42.179Z,95298.20
2018-06-24T01:10:08.823Z,95295.76
2018-06-24T01:12:35.471Z,95297.53
2018-06-24T01:15:02.109Z,95299.42
2018-06-24T01:17:28.794Z,95295.53
2018-06-24T01:19:55.407Z,95295.53
2018-06-24T01:22:22.042Z,95298.08
2018-06-24T01:24:48.712Z,95293.43
2018-06-24T01:27:15.392Z,95298.33
2018-06-24T01:29:42.130Z,95297.97
2018-06-24T01:32:08.781Z,95297.47
2018-06-24T01:34:35.414Z,95293.58
2018-06-24T01:37:02.058Z,95290.05
2018-06-24T01:39:28.701Z,95300.75
2018-06-24T01:41:55.347Z,95295.84
2018-06-24T01:44:21.978Z,95291.33
2018-06-24T01:46:48.696Z,95292.09
2018-06-24T01:49:15.335Z,95296.48
2018-06-24T01:51:41.968Z,95288.95
2018-06-24T01:54:08.605Z,95295.34
2018-06-24T01:56:35.250Z,95294.22
2018-06-24T01:59:01.889Z,95294.22
2018-06-24T02:01:28.548Z,95299.32
2018-06-24T02:03:55.180Z,95290.70
2018-06-24T02:06:21.822Z,95295.78
2018-06-24T02:08:48.449Z,95292.73
2018-06-24T02:11:15.089Z,95293.51
2018-06-24T02:13:41.742Z,95291.61
2018-06-24T02:16:08.415Z,95293.76
2018-06-24T02:18:35.058Z,95297.30
2018-06-24T02:21:01.696Z,95291.99
2018-06-24T02:23:28.339Z,95288.23
2018-06-24T02:25:57.845Z,95286.82
2018-06-24T02:28:24.501Z,95285.20
2018-06-24T02:30:51.139Z,95288.77
2018-06-24T02:33:17.809Z,95288.63
2018-06-24T02:35:44.435Z,95290.37
2018-06-24T02:38:11.074Z,95291.78
2018-06-24T02:40:37.745Z,95295.06
2018-06-24T02:43:04.340Z,95293.66
2018-06-24T02:45:31.024Z,95298.83
2018-06-24T02:47:57.620Z,95295.33
2018-06-24T02:50:24.257Z,95293.55
2018-06-24T02:52:50.910Z,95292.45
2018-06-24T02:55:17.587Z,95294.20
2018-06-24T02:57:44.229Z,95294.19
2018-06-24T03:00:10.862Z,95293.08
2018-06-24T03:02:37.513Z,95290.58
2018-06-24T03:05:04.205Z,95293.70
2018-06-24T03:07:30.857Z,95291.20
2018-06-24T03:09:57.515Z,95288.80
2018-06-24T03:12:24.147Z,95282.61
2018-06-24T03:14:50.802Z,95287.53
2018-06-24T03:17:17.475Z,95294.59
2018-06-24T03:19:44.142Z,95292.55
2018-06-24T03:22:10.808Z,95298.47
2018-06-24T03:24:37.417Z,95302.48
2018-06-24T03:27:04.055Z,95309.44
2018-06-24T03:29:30.692Z,95304.75
2018-06-24T03:31:57.322Z,95311.33
2018-06-24T03:34:23.967Z,95317.51
2018-06-24T03:36:50.610Z,95312.22
2018-06-24T03:39:17.316Z,95314.58
2018-06-24T03:41:43.970Z,95318.74
2018-06-24T03:44:10.618Z,95314.05
2018-06-24T03:46:37.262Z,95311.15
2018-06-24T03:49:03.927Z,95312.66
2018-06-24T03:51:30.578Z,95311.99
2018-06-24T03:53:57.216Z,95310.40
2018-06-24T03:56:23.895Z,95312.64
2018-06-24T03:58:50.545Z,95309.45
2018-06-24T04:01:17.185Z,95309.05
2018-06-24T04:03:43.820Z,95315.20
2018-06-24T04:06:10.478Z,95311.59
2018-06-24T04:08:37.165Z,95316.75
2018-06-24T04:11:03.798Z,95309.50
2018-06-24T04:13:30.429Z,95314.73
2018-06-24T04:15:57.076Z,95315.77
2018-06-24T04:18:23.771Z,95311.91
2018-06-24T04:20:50.348Z,95315.60
2018-06-24T04:23:16.986Z,95317.97
2018-06-24T04:25:43.639Z,95320.75
2018-06-24T04:30:36.899Z,95317.25
2018-06-24T04:33:03.553Z,95316.69
2018-06-24T04:35:30.193Z,95314.63
2018-06-24T04:37:56.862Z,95322.56
2018-06-24T04:40:23.499Z,95327.55
2018-06-24T04:42:50.147Z,95327.39
2018-06-24T04:45:16.780Z,95320.37
2018-06-24T04:47:43.516Z,95326.27
2018-06-24T04:50:10.119Z,95321.56
2018-06-24T04:52:36.752Z,95320.89
2018-06-24T04:55:03.433Z,95321.23
2018-06-24T04:57:30.082Z,95320.91
2018-06-24T04:59:56.762Z,95321.23
2018-06-24T05:02:23.407Z,95321.88
2018-06-24T05:04:50.035Z,95323.36
2018-06-24T05:07:16.685Z,95319.31
2018-06-24T05:09:43.381Z,95322.48
2018-06-24T05:12:10.026Z,95322.81
2018-06-24T05:14:36.669Z,95323.70
2018-06-24T05:17:03.307Z,95321.37
2018-06-24T05:19:29.994Z,95321.50
2018-06-24T05:21:56.629Z,95318.25
2018-06-24T05:24:23.281Z,95318.48
2018-06-24T05:26:50.052Z,95326.37
2018-06-24T05:29:16.686Z,95330.67
2018-06-24T05:31:43.333Z,95321.13
2018-06-24T05:34:09.974Z,95321.41
2018-06-24T05:36:36.655Z,95318.66
2018-06-24T05:39:03.310Z,95307.50
2018-06-24T05:41:29.938Z,95310.92
2018-06-24T05:43:56.587Z,95318.17
2018-06-24T05:46:23.230Z,95316.90
2018-06-24T05:48:49.941Z,95308.62
2018-06-24T05:51:16.552Z,95309.41
2018-06-24T05:53:43.193Z,95303.12
2018-06-24T05:56:09.837Z,95312.11
2018-06-24T05:58:36.475Z,95314.64
2018-06-24T06:01:03.115Z,95309.52
2018-06-24T06:03:29.756Z,95312.34
2018-06-24T06:05:56.400Z,95313.05
2018-06-24T06:08:23.056Z,95326.04
2018-06-24T06:10:49.693Z,95320.56
2018-06-24T06:13:16.374Z,95312.11
2018-06-24T06:15:44.636Z,95312.20
2018-06-24T06:18:09.659Z,95310.94
2018-06-24T06:20:36.308Z,95313.41
2018-06-24T06:23:02.950Z,95308.62
2018-06-24T06:25:29.588Z,95308.41
2018-06-24T06:27:56.239Z,95310.91
2018-06-24T06:30:22.888Z,95312.69
2018-06-24T06:32:49.506Z,95308.55
2018-06-24T06:35:16.149Z,95308.33
2018-06-24T06:37:42.794Z,95298.87
2018-06-24T06:40:09.478Z,95294.52
2018-06-24T06:42:36.122Z,95295.72
2018-06-24T06:45:02.868Z,95296.35
2018-06-24T06:47:29.410Z,95295.34
2018-06-24T06:49:56.043Z,95290.91
2018-06-24T06:52:22.693Z,95299.09
2018-06-24T06:54:49.337Z,95296.63
2018-06-24T06:57:16.034Z,95290.00
2018-06-24T06:59:42.671Z,95295.67
2018-06-24T07:02:09.317Z,95296.31
2018-06-24T07:04:35.994Z,95288.64
2018-06-24T07:07:02.630Z,95286.90
2018-06-24T07:09:29.308Z,95291.46
2018-06-24T07:11:55.910Z,95289.69
2018-06-24T07:14:22.558Z,95287.69
2018-06-24T07:16:49.192Z,95286.58
2018-06-24T07:19:15.836Z,95286.72
2018-06-24T07:21:42.480Z,95287.10
2018-06-24T07:24:09.125Z,95284.87
2018-06-24T07:26:35.761Z,95280.19
2018-06-24T07:29:02.453Z,95288.81
2018-06-24T07:31:29.090Z,95286.98
2018-06-24T07:33:55.733Z,95281.27
2018-06-24T07:36:22.393Z,95282.54
2018-06-24T07:38:49.037Z,95289.33
2018-06-24T07:41:15.690Z,95284.39
2018-06-24T07:43:42.326Z,95282.79
2018-06-24T07:46:09.003Z,95285.56
2018-06-24T07:48:35.610Z,95287.36
2018-06-24T07:51:02.243Z,95284.87
2018-06-24T07:53:28.894Z,95283.42
2018-06-24T07:55:55.547Z,95291.45
2018-06-24T07:58:22.174Z,95286.41
2018-06-24T08:00:48.818Z,95285.64
2018-06-24T08:03:15.455Z,95287.22
2018-06-24T08:05:42.141Z,95286.59
2018-06-24T08:08:08.776Z,95285.64
2018-06-24T08:10:35.407Z,95281.45
2018-06-24T08:13:02.059Z,95281.02
2018-06-24T08:15:28.713Z,95291.28
2018-06-24T08:17:55.346Z,95290.77
2018-06-24T08:20:22.035Z,95291.47
2018-06-24T08:22:48.730Z,95295.34
2018-06-24T08:25:15.298Z,95299.14
2018-06-24T08:27:41.944Z,95301.30
2018-06-24T08:30:08.593Z,95294.88
2018-06-24T08:32:35.284Z,95295.64
2018-06-24T08:35:01.919Z,95293.84
2018-06-24T08:37:28.559Z,95295.50
2018-06-24T08:39:55.197Z,95303.60
2018-06-24T08:42:21.881Z,95297.92
2018-06-24T08:44:48.520Z,95303.62
2018-06-24T08:47:15.205Z,95297.75
2018-06-24T08:49:41.883Z,95306.16
2018-06-24T08:52:08.482Z,95301.61
2018-06-24T08:54:35.119Z,95304.30
2018-06-24T08:57:01.878Z,95299.14
2018-06-24T08:59:28.561Z,95296.67
2018-06-24T09:01:55.193Z,95292.23
2018-06-24T09:04:21.878Z,95295.23
2018-06-24T09:06:48.513Z,95298.67
2018-06-24T09:09:15.184Z,95290.37
2018-06-24T09:11:41.785Z,95289.63
2018-06-24T09:14:08.477Z,95290.96
2018-06-24T09:16:35.121Z,95285.77
2018-06-24T09:19:01.766Z,95282.77
2018-06-24T09:21:28.418Z,95279.05
2018-06-24T09:23:55.046Z,95278.53
2018-06-24T09:26:21.692Z,95276.38
2018-06-24T09:28:48.337Z,95277.34
2018-06-24T09:31:15.023Z,95275.69
2018-06-24T09:33:41.659Z,95268.52
2018-06-24T09:36:08.298Z,95279.09
2018-06-24T09:38:34.946Z,95271.87
2018-06-24T09:41:01.600Z,95273.27
2018-06-24T09:43:28.302Z,95267.14
2018-06-24T09:45:54.904Z,95268.27
2018-06-24T09:48:21.546Z,95263.59
2018-06-24T09:50:48.183Z,95260.80
2018-06-24T09:53:14.830Z,95257.23
2018-06-24T09:55:41.479Z,95256.53
2018-06-24T09:58:08.126Z,95253.88
2018-06-24T10:00:34.769Z,95245.84
2018-06-24T10:03:01.435Z,95254.58
2018-06-24T10:05:28.072Z,95253.77
2018-06-24T10:07:54.714Z,95252.73
2018-06-24T10:10:21.350Z,95253.25
2018-06-24T10:12:47.994Z,95249.08
2018-06-24T10:15:14.633Z,95249.61
2018-06-24T10:17:41.272Z,95254.78
2018-06-24T10:20:07.916Z,95251.50
2018-06-24T10:22:34.566Z,95253.41
2018-06-24T10:25:01.217Z,95252.23
2018-06-24T10:27:27.847Z,95249.40
2018-06-24T10:29:54.498Z,95246.70
2018-06-24T10:32:21.138Z,95245.69
2018-06-24T10:34:47.837Z,95246.00
2018-06-24T10:37:14.522Z,95236.84
2018-06-24T10:39:41.171Z,95245.16
2018-06-24T10:42:07.850Z,95234.77
2018-06-24T10:44:34.494Z,95231.42
2018-06-24T10:47:01.122Z,95229.87
2018-06-24T10:49:31.054Z,95231.48
2018-06-24T10:51:57.697Z,95229.39
2018-06-24T10:54:24.337Z,95228.17
2018-06-24T10:56:50.988Z,95229.14
2018-06-24T10:59:17.635Z,95229.91
2018-06-24T11:01:44.278Z,95227.41
2018-06-24T11:04:10.923Z,95227.99
2018-06-24T11:06:37.561Z,95218.06
2018-06-24T11:09:04.326Z,95215.46
2018-06-24T11:11:30.969Z,95210.59
2018-06-24T11:13:57.646Z,95206.38
2018-06-24T11:16:24.296Z,95209.66
2018-06-24T11:18:50.935Z,95211.60
2018-06-24T11:21:17.614Z,95201.42
2018-06-24T11:23:44.249Z,95201.54
2018-06-24T11:26:10.886Z,95202.44
2018-06-24T11:28:39.102Z,95206.09
2018-06-24T11:31:04.222Z,95198.05
2018-06-24T11:33:30.894Z,95194.02
2018-06-24T11:35:57.537Z,95195.21
2018-06-24T11:38:24.183Z,95198.78
2018-06-24T11:40:50.897Z,95194.08
2018-06-24T11:43:17.547Z,95200.78
2018-06-24T11:45:44.201Z,95197.36
2018-06-24T11:48:10.955Z,95195.27
2018-06-24T11:50:37.569Z,95194.89
2018-06-24T11:53:04.209Z,95190.33
2018-06-24T11:55:30.890Z,95190.91
2018-06-24T11:57:57.542Z,95192.25
2018-06-24T12:00:24.179Z,95196.80
2018-06-24T12:02:50.826Z,95182.60
2018-06-24T12:05:17.461Z,95182.38
2018-06-24T12:07:44.112Z,95185.13
2018-06-24T12:10:10.788Z,95184.70
2018-06-24T12:12:37.425Z,95185.34
2018-06-24T12:15:04.060Z,95188.19
2018-06-24T12:17:30.740Z,95183.56
2018-06-24T12:19:57.386Z,95182.17
2018-06-24T12:22:24.025Z,95184.27
2018-06-24T12:24:50.663Z,95177.50
2018-06-24T12:27:17.350Z,95180.72
2018-06-24T12:29:44.026Z,95181.47
2018-06-24T12:32:10.625Z,95172.30
2018-06-24T12:34:37.273Z,95173.11
2018-06-24T12:37:03.908Z,95174.67
2018-06-24T12:39:30.559Z,95170.27
2018-06-24T12:41:57.247Z,95164.69
2018-06-24T12:44:23.887Z,95159.34
2018-06-24T12:46:50.538Z,95164.28
2018-06-24T12:49:17.178Z,95150.72
2018-06-24T12:51:43.834Z,95149.32
2018-06-24T12:54:10.469Z,95157.77
2018-06-24T12:56:37.140Z,95160.56
2018-06-24T12:59:03.893Z,95156.17
2018-06-24T13:01:30.450Z,95158.97
2018-06-24T13:03:57.058Z,95154.41
2018-06-24T13:06:23.699Z,95152.58
2018-06-24T13:08:50.384Z,95149.96
2018-06-24T13:11:17.103Z,95143.83
2018-06-24T13:13:43.742Z,95145.89
2018-06-24T13:16:10.427Z,95144.00
2018-06-24T13:18:37.106Z,95141.92
2018-06-24T13:21:03.707Z,95140.91
2018-06-24T13:23:30.449Z,95137.09
2018-06-24T13:25:57.171Z,95140.52
2018-06-24T13:28:23.773Z,95138.31
2018-06-24T13:30:50.461Z,95137.08
2018-06-24T13:33:17.142Z,95142.66
2018-06-24T13:35:43.780Z,95138.68
2018-06-24T13:38:10.428Z,95133.34
2018-06-24T13:40:37.074Z,95133.23
2018-06-24T13:43:03.762Z,95133.86
2018-06-24T13:45:30.467Z,95129.24
2018-06-24T13:47:57.105Z,95127.91
2018-06-24T13:50:23.748Z,95126.30
2018-06-24T13:52:50.394Z,95125.92
2018-06-24T13:55:17.033Z,95124.59
2018-06-24T13:57:43.682Z,95125.42
2018-06-24T14:00:10.376Z,95128.67
2018-06-24T14:02:37.011Z,95127.22
2018-06-24T14:05:03.675Z,95126.63
2018-06-24T14:07:30.286Z,95126.05
2018-06-24T14:09:56.937Z,95122.07
2018-06-24T14:12:23.582Z,95119.45
2018-06-24T14:14:50.257Z,95123.83
2018-06-24T14:17:16.893Z,95122.39
2018-06-24T14:19:43.637Z,95118.03
2018-06-24T14:22:10.276Z,95117.45
2018-06-24T14:24:36.925Z,95126.00
2018-06-24T14:27:03.585Z,95116.18
2018-06-24T14:29:30.234Z,95120.30
2018-06-24T14:31:56.892Z,95120.50
2018-06-24T14:34:23.570Z,95116.75
2018-06-24T14:36:50.222Z,95119.92
2018-06-24T14:39:16.889Z,95106.84
2018-06-24T14:41:43.535Z,95110.39
2018-06-24T14:44:10.240Z,95116.23
2018-06-24T14:46:36.828Z,95106.36
2018-06-24T14:49:03.502Z,95108.77
2018-06-24T14:51:30.149Z,95102.81
2018-06-24T14:53:56.782Z,95108.41
2018-06-24T14:56:23.435Z,95100.42
2018-06-24T14:58:50.078Z,95105.24
2018-06-24T15:01:16.791Z,95101.38
2018-06-24T15:03:43.385Z,95096.36
2018-06-24T15:06:10.032Z,95089.47
2018-06-24T15:08:36.713Z,95092.37
2018-06-24T15:11:03.354Z,95091.36
2018-06-24T15:13:30.015Z,95090.72
2018-06-24T15:15:56.690Z,95082.94
2018-06-24T15:18:23.374Z,95082.94
2018-06-24T15:20:50.015Z,95077.80
2018-06-24T15:23:16.669Z,95083.70
2018-06-24T15:25:43.310Z,95075.07
2018-06-24T15:28:09.953Z,95073.56
2018-06-24T15:30:36.612Z,95073.52
2018-06-24T15:33:03.300Z,95072.17
2018-06-24T15:35:29.905Z,95077.15
2018-06-24T15:37:56.549Z,95075.03
2018-06-24T15:40:23.225Z,95075.06
2018-06-24T15:42:49.961Z,95069.22
2018-06-24T15:45:16.598Z,95070.03
2018-06-24T15:47:43.247Z,95077.27
2018-06-24T15:50:09.922Z,95077.96
2018-06-24T15:52:36.610Z,95078.34
2018-06-24T15:55:03.302Z,95074.80
2018-06-24T15:57:29.932Z,95080.55
2018-06-24T15:59:56.569Z,95075.23
2018-06-24T16:02:23.259Z,95080.75
2018-06-24T16:04:49.937Z,95078.60
2018-06-24T16:07:16.576Z,95076.56
2018-06-24T16:09:43.260Z,95078.48
2018-06-24T16:12:10.028Z,95084.17
2018-06-24T16:14:36.701Z,95086.13
2018-06-24T16:17:03.386Z,95083.05
2018-06-24T16:19:30.061Z,95088.16
2018-06-24T16:21:56.761Z,95097.36
2018-06-24T16:24:23.409Z,95084.23
2018-06-24T16:26:50.043Z,95092.08
2018-06-24T16:29:16.771Z,95100.64
2018-06-24T16:31:43.373Z,95096.28
2018-06-24T16:34:10.024Z,95108.13
2018-06-24T16:36:36.663Z,95108.95
2018-06-24T16:39:03.312Z,95106.33
2018-06-24T16:41:29.955Z,95106.47
2018-06-24T16:43:56.607Z,95107.44
2018-06-24T16:46:23.300Z,95110.22
2018-06-24T16:48:49.940Z,95111.91
2018-06-24T16:51:16.591Z,95110.86
2018-06-24T16:53:43.239Z,95119.48
2018-06-24T16:56:09.892Z,95108.74
2018-06-24T16:58:36.532Z,95110.22
2018-06-24T17:01:03.232Z,95110.14
2018-06-24T17:03:29.873Z,95112.61
2018-06-24T17:05:56.518Z,95107.30
2018-06-24T17:08:23.162Z,95107.41
2018-06-24T17:10:49.884Z,95113.91
2018-06-24T17:13:17.839Z,95111.53
2018-06-24T17:15:43.246Z,95113.63
2018-06-24T17:18:09.922Z,95110.52
2018-06-24T17:20:36.566Z,95114.58
2018-06-24T17:23:03.271Z,95118.61
2018-06-24T17:25:29.909Z,95124.83
2018-06-24T17:27:56.665Z,95118.23
2018-06-24T17:30:23.317Z,95123.95
2018-06-24T17:32:49.955Z,95131.03
2018-06-24T17:35:16.604Z,95130.22
2018-06-24T17:37:43.300Z,95137.04
2018-06-24T17:40:09.940Z,95133.12
2018-06-24T17:42:36.575Z,95141.59
2018-06-24T17:45:03.267Z,95138.63
2018-06-24T17:47:29.973Z,95143.19
2018-06-24T17:49:56.576Z,95141.67
2018-06-24T17:52:23.290Z,95146.75
2018-06-24T17:54:49.895Z,95144.57
2018-06-24T17:57:16.569Z,95146.02
2018-06-24T17:59:43.204Z,95149.27
2018-06-24T18:02:09.887Z,95150.23
2018-06-24T18:04:36.534Z,95155.33
2018-06-24T18:07:03.170Z,95150.16
2018-06-24T18:09:29.815Z,95158.56
2018-06-24T18:11:56.534Z,95154.32
2018-06-24T18:14:23.222Z,95163.20
2018-06-24T18:16:49.864Z,95170.34
2018-06-24T18:19:16.547Z,95169.00
2018-06-24T18:21:43.274Z,95163.51
2018-06-24T18:24:09.879Z,95165.59
2018-06-24T18:26:36.645Z,95176.37
2018-06-24T18:29:03.244Z,95172.10
2018-06-24T18:31:29.893Z,95172.36
2018-06-24T18:33:56.577Z,95181.47
2018-06-24T18:36:23.259Z,95187.77
2018-06-24T18:38:49.901Z,95182.52
2018-06-24T18:41:16.574Z,95187.61
2018-06-24T18:43:43.209Z,95189.64
2018-06-24T18:46:09.842Z,95196.72
2018-06-24T18:48:36.485Z,95194.34
2018-06-24T18:51:03.120Z,95201.97
2018-06-24T18:53:29.803Z,95193.75
2018-06-24T18:55:56.444Z,95196.91
2018-06-24T18:58:24.295Z,95201.52
2018-06-24T19:00:49.723Z,95207.34
2018-06-24T19:03:16.414Z,95212.66
2018-06-24T19:05:43.050Z,95213.72
2018-06-24T19:08:09.685Z,95209.80
2018-06-24T19:10:36.332Z,95215.63
2018-06-24T19:13:05.962Z,95221.46
2018-06-24T19:15:32.650Z,95216.84
2018-06-24T19:17:59.289Z,95225.09
2018-06-24T19:20:25.978Z,95228.73
2018-06-24T19:22:52.615Z,95227.38
2018-06-24T19:25:19.323Z,95229.72
2018-06-24T19:27:45.933Z,95223.73
2018-06-24T19:30:12.569Z,95225.66
2018-06-24T19:32:39.335Z,95224.41
2018-06-24T19:35:05.905Z,95212.25
2018-06-24T19:37:32.575Z,95209.38
2018-06-24T19:39:59.200Z,95212.94
2018-06-24T19:42:25.836Z,95213.58
2018-06-24T19:44:52.597Z,95208.61
2018-06-24T19:47:19.227Z,95221.31
2018-06-24T19:49:45.916Z,95220.41
2018-06-24T19:52:12.550Z,95224.23
2018-06-24T19:54:39.263Z,95226.05
2018-06-24T19:57:05.877Z,95227.39
2018-06-24T19:59:35.549Z,95222.13
2018-06-24T20:02:02.194Z,95227.31
2018-06-24T20:04:28.905Z,95223.31
2018-06-24T20:06:55.553Z,95225.27
2018-06-24T20:09:22.231Z,95229.14
2018-06-24T20:11:48.875Z,95227.53
2018-06-24T20:14:15.519Z,95219.81
2018-06-24T20:16:42.149Z,95219.44
2018-06-24T20:19:08.794Z,95230.75
2018-06-24T20:21:35.434Z,95224.80
2018-06-24T20:24:02.083Z,95225.56
2018-06-24T20:26:28.717Z,95228.91
2018-06-24T20:28:55.433Z,95231.93
2018-06-24T20:31:22.045Z,95225.39
2018-06-24T20:33:48.730Z,95225.11
2018-06-24T20:36:15.365Z,95225.39
2018-06-24T20:38:42.051Z,95210.19
2018-06-24T20:41:08.695Z,95225.31
2018-06-24T20:43:35.316Z,95226.84
2018-06-24T20:46:01.967Z,95225.45
2018-06-24T20:48:28.605Z,95222.17
2018-06-24T20:50:55.332Z,95220.19
2018-06-24T20:53:21.928Z,95217.15
2018-06-24T20:55:48.562Z,95211.39
2018-06-24T20:58:15.250Z,95214.37
2018-06-24T21:00:41.889Z,95209.61
2018-06-24T21:03:08.570Z,95212.69
2018-06-24T21:05:35.204Z,95219.98
2018-06-24T21:08:01.881Z,95216.36
2018-06-24T21:10:28.513Z,95212.32
2018-06-24T21:12:55.195Z,95212.98
2018-06-24T21:15:21.877Z,95211.31
2018-06-24T21:17:48.513Z,95215.64
2018-06-24T21:20:15.153Z,95207.55
2018-06-24T21:22:41.803Z,95199.89
2018-06-24T21:25:08.485Z,95205.83
2018-06-24T21:27:35.118Z,95200.90
2018-06-24T21:30:01.800Z,95205.12
2018-06-24T21:32:28.475Z,95194.24
2018-06-24T21:34:55.084Z,95202.00
2018-06-24T21:37:21.780Z,95200.48
2018-06-24T21:39:48.458Z,95199.69
2018-06-24T21:42:15.098Z,95188.30
2018-06-24T21:44:41.734Z,95199.91
2018-06-24T21:47:08.437Z,95194.59
2018-06-24T21:49:35.105Z,95192.70
2018-06-24T21:52:01.769Z,95193.53
2018-06-24T21:54:28.403Z,95192.14
2018-06-24T21:56:55.099Z,95189.73
2018-06-24T21:59:21.786Z,95189.23
2018-06-24T22:01:48.432Z,95194.72
2018-06-24T22:04:15.075Z,95192.53
2018-06-24T22:06:41.781Z,95196.41
2018-06-24T22:09:08.367Z,95198.89
2018-06-24T22:11:35.018Z,95205.34
2018-06-24T22:14:01.668Z,95199.06
2018-06-24T22:16:28.309Z,95192.49
2018-06-24T22:18:54.967Z,95195.73
2018-06-24T22:21:21.617Z,95193.12
2018-06-24T22:23:48.259Z,95199.45
2018-06-24T22:26:14.937Z,95190.52
2018-06-24T22:28:41.581Z,95204.42
2018-06-24T22:31:08.240Z,95200.13
2018-06-24T22:33:34.883Z,95194.95
2018-06-24T22:36:01.525Z,95196.22
2018-06-24T22:38:28.171Z,95196.00
2018-06-24T22:40:54.809Z,95196.75
2018-06-24T22:43:21.458Z,95194.91
2018-06-24T22:45:48.140Z,95194.78
2018-06-24T22:48:14.745Z,95201.86
2018-06-24T22:50:41.391Z,95196.05
2018-06-24T22:53:08.048Z,95204.02
2018-06-24T22:55:34.680Z,95208.56
2018-06-24T22:58:01.318Z,95201.02
2018-06-24T23:00:27.967Z,95200.52
2018-06-24T23:02:54.625Z,95198.70
2018-06-24T23:05:21.267Z,95200.13
2018-06-24T23:07:47.910Z,95194.77
2018-06-24T23:10:14.547Z,95194.65
2018-06-24T23:12:41.185Z,95202.70
2018-06-24T23:15:07.833Z,95195.12
2018-06-24T23:17:34.466Z,95190.89
2018-06-24T23:20:01.123Z,95194.73
2018-06-24T23:22:27.754Z,95188.38
2018-06-24T23:24:54.397Z,95190.52
2018-06-24T23:27:21.080Z,95185.72
2018-06-24T23:29:47.693Z,95189.26
2018-06-24T23:32:14.330Z,95180.80
2018-06-24T23:34:40.981Z,95182.84
2018-06-24T23:37:07.630Z,95194.73
2018-06-24T23:39:34.268Z,95186.02
2018-06-24T23:42:00.943Z,95187.41
2018-06-24T23:44:27.564Z,95187.95
2018-06-24T23:46:54.202Z,95190.19
2018-06-24T23:49:20.844Z,95183.40
2018-06-24T23:51:47.493Z,95190.22
2018-06-24T23:54:14.133Z,95190.73
2018-06-24T23:56:40.807Z,95182.43
2018-06-24T23:59:07.446Z,95182.39
